Time;durP1;ratioP1;P1;durP2;ratioP2;P2;SDS_P1;SDS_P2;PMS_P1;PMS_P2;Temp;Humidity;BMP_temperature;BMP_pressure;BME280_temperature;BME280_humidity;BME280_pressure;Samples;Min_cycle;Max_cycle;Signal;HPM_P1;HPM_P2
2020/12/07 00:01:05;;;;;;;2.40;1.00;;;7.40;70.70;;;;;;2445591;56;20980;-74
2020/12/07 00:03:31;;;;;;;1.73;0.70;;;7.40;70.80;;;;;;2237354;56;21100;-75
2020/12/07 00:05:57;;;;;;;2.97;0.80;;;7.40;70.80;;;;;;2228096;56;21044;-74
2020/12/07 00:08:24;;;;;;;1.52;0.62;;;7.40;70.90;;;;;;2225087;56;20997;-74
2020/12/07 00:10:51;;;;;;;2.22;0.73;;;7.40;71.00;;;;;;2237286;56;21461;-74
2020/12/07 00:13:17;;;;;;;2.05;0.70;;;7.40;71.00;;;;;;2237347;56;20976;-74
2020/12/07 00:15:45;;;;;;;1.73;0.80;;;7.40;71.10;;;;;;2446169;55;21031;-74
2020/12/07 00:18:11;;;;;;;1.90;0.80;;;7.40;71.10;;;;;;2224706;55;21538;-74
2020/12/07 00:20:38;;;;;;;2.80;1.12;;;7.30;71.00;;;;;;2237196;56;21007;-74
2020/12/07 00:23:06;;;;;;;2.33;1.00;;;7.30;70.90;;;;;;2443767;56;21143;-74
2020/12/07 00:25:32;;;;;;;2.92;1.08;;;7.30;71.00;;;;;;2237455;56;21820;-74
2020/12/07 00:27:59;;;;;;;2.85;1.17;;;7.30;71.10;;;;;;2237535;56;20964;-74
2020/12/07 00:30:25;;;;;;;2.47;1.02;;;7.30;71.20;;;;;;2455302;55;20991;-74
2020/12/07 00:32:52;;;;;;;2.65;1.20;;;7.30;71.30;;;;;;2233395;55;20983;-74
2020/12/07 00:35:18;;;;;;;4.00;1.90;;;7.30;71.30;;;;;;2228257;55;21050;-74
2020/12/07 00:37:46;;;;;;;4.45;2.12;;;7.30;71.40;;;;;;2448878;55;20985;-74
2020/12/07 00:40:13;;;;;;;3.42;1.62;;;7.30;71.40;;;;;;2206012;57;21023;-74
2020/12/07 00:42:40;;;;;;;3.42;1.60;;;7.30;71.40;;;;;;2236403;56;21052;-74
2020/12/07 00:45:07;;;;;;;2.90;1.30;;;7.30;71.50;;;;;;2232040;56;21058;-75
2020/12/07 00:47:36;;;;;;;5.00;1.70;;;7.30;71.50;;;;;;2232323;56;20993;-74
2020/12/07 00:50:04;;;;;;;4.55;2.28;;;7.30;71.50;;;;;;2236694;56;21254;-74
2020/12/07 00:52:30;;;;;;;4.20;1.73;;;7.30;71.50;;;;;;2237223;56;20973;-74
2020/12/07 00:54:58;;;;;;;3.40;1.77;;;7.30;71.50;;;;;;2238285;56;21036;-74
2020/12/07 00:57:25;;;;;;;4.95;1.52;;;7.30;71.50;;;;;;2230818;56;20994;-74
2020/12/07 00:59:53;;;;;;;3.10;1.30;;;7.30;71.50;;;;;;2235856;56;20993;-74
2020/12/07 01:02:20;;;;;;;3.42;1.73;;;7.30;71.60;;;;;;2230910;55;20995;-74
2020/12/07 01:04:46;;;;;;;5.18;1.95;;;7.30;71.70;;;;;;2234017;56;21044;-74
2020/12/07 01:07:12;;;;;;;4.22;2.20;;;7.30;71.80;;;;;;2442548;55;20962;-74
2020/12/07 01:09:40;;;;;;;4.43;1.70;;;7.30;71.90;;;;;;2229025;56;21052;-74
2020/12/07 01:12:06;;;;;;;3.95;1.85;;;7.40;72.00;;;;;;2232136;55;20931;-75
2020/12/07 01:14:33;;;;;;;4.18;1.92;;;7.40;72.00;;;;;;2226694;55;20983;-74
2020/12/07 01:16:59;;;;;;;4.05;1.87;;;7.40;72.00;;;;;;2223594;55;21049;-74
2020/12/07 01:19:26;;;;;;;4.35;1.92;;;7.40;72.00;;;;;;2456645;55;21024;-74
2020/12/07 01:21:53;;;;;;;4.03;2.10;;;7.40;72.00;;;;;;2236721;56;20961;-74
2020/12/07 01:24:19;;;;;;;3.92;2.00;;;7.40;71.90;;;;;;2237918;56;20988;-75
2020/12/07 01:26:46;;;;;;;4.30;2.15;;;7.40;71.90;;;;;;2449071;55;21011;-74
2020/12/07 01:29:12;;;;;;;5.37;2.60;;;7.40;71.90;;;;;;2225617;55;20978;-74
2020/12/07 01:31:38;;;;;;;4.60;2.30;;;7.50;72.10;;;;;;2235096;55;21859;-74
2020/12/07 01:34:05;;;;;;;5.65;3.10;;;7.50;72.10;;;;;;2236826;56;20997;-74
2020/12/07 01:36:31;;;;;;;7.10;3.50;;;7.50;72.10;;;;;;2237563;56;22043;-74
2020/12/07 01:38:58;;;;;;;6.60;3.20;;;7.50;72.10;;;;;;2448125;55;20935;-74
2020/12/07 01:41:24;;;;;;;7.35;3.15;;;7.50;72.10;;;;;;2233982;56;20948;-74
2020/12/07 01:43:50;;;;;;;7.37;3.53;;;7.50;72.20;;;;;;2420245;56;21056;-74
2020/12/07 01:46:22;;;;;;;6.80;3.58;;;7.60;72.30;;;;;;2239962;56;21074;-74
2020/12/07 01:48:52;;;;;;;8.95;4.93;;;7.60;72.30;;;;;;2224731;55;21913;-74
2020/12/07 01:51:18;;;;;;;11.95;5.30;;;7.60;72.20;;;;;;2227754;55;21895;-74
2020/12/07 01:53:45;;;;;;;11.45;6.82;;;7.60;72.20;;;;;;2439250;55;20966;-74
2020/12/07 01:56:13;;;;;;;12.82;7.18;;;7.60;72.10;;;;;;2232721;55;20997;-74
2020/12/07 01:58:43;;;;;;;13.23;7.00;;;7.60;72.10;;;;;;2238904;56;20973;-74
2020/12/07 02:01:09;;;;;;;10.55;5.60;;;7.60;72.10;;;;;;2237280;56;21032;-74
2020/12/07 02:03:36;;;;;;;11.80;5.80;;;7.60;72.00;;;;;;2238091;56;20969;-74
2020/12/07 02:06:02;;;;;;;10.88;5.62;;;7.60;72.10;;;;;;2230931;56;20979;-74
2020/12/07 02:08:29;;;;;;;11.70;6.32;;;7.60;72.00;;;;;;2456679;55;20948;-75
2020/12/07 02:10:55;;;;;;;11.40;6.28;;;7.70;72.10;;;;;;2457739;55;21095;-74
2020/12/07 02:13:22;;;;;;;14.50;6.80;;;7.70;72.10;;;;;;2440345;55;20942;-74
2020/12/07 02:15:48;;;;;;;9.68;5.50;;;7.70;72.10;;;;;;2237532;55;20969;-74
2020/12/07 02:18:15;;;;;;;10.05;5.47;;;7.70;72.10;;;;;;2461492;55;21040;-74
2020/12/07 02:20:45;;;;;;;12.68;5.87;;;7.70;72.20;;;;;;2461205;55;21978;-74
2020/12/07 02:23:11;;;;;;;16.37;7.62;;;7.70;72.80;;;;;;2238041;56;21787;-74
2020/12/07 02:25:38;;;;;;;16.70;8.88;;;7.70;72.10;;;;;;2444082;55;20987;-74
2020/12/07 02:28:04;;;;;;;19.12;9.15;;;7.70;72.00;;;;;;2230322;56;20987;-74
2020/12/07 02:30:31;;;;;;;16.27;8.57;;;7.70;72.00;;;;;;2235331;56;20957;-74
2020/12/07 02:32:58;;;;;;;14.60;7.00;;;7.70;72.00;;;;;;2238250;56;20961;-74
2020/12/07 02:35:24;;;;;;;12.95;5.75;;;7.70;72.00;;;;;;2224694;56;20971;-74
2020/12/07 02:37:51;;;;;;;10.77;4.45;;;7.70;72.00;;;;;;2451722;55;21064;-74
2020/12/07 02:40:19;;;;;;;9.73;4.43;;;7.70;72.00;;;;;;2454339;56;20996;-75
2020/12/07 02:42:46;;;;;;;7.80;4.10;;;7.70;72.00;;;;;;2229374;55;21052;-74
2020/12/07 02:45:13;;;;;;;7.55;4.15;;;7.70;71.90;;;;;;2461582;55;21789;-74
2020/12/07 02:47:43;;;;;;;7.32;4.30;;;7.80;72.00;;;;;;2444318;55;20987;-74
2020/12/07 02:50:10;;;;;;;9.02;4.72;;;7.70;71.80;;;;;;2238654;56;20996;-74
2020/12/07 02:52:36;;;;;;;8.40;4.40;;;7.70;71.80;;;;;;2237344;56;20983;-74
2020/12/07 02:55:09;;;;;;;10.57;5.47;;;7.80;71.90;;;;;;2223701;55;20948;-74
2020/12/07 02:57:36;;;;;;;11.50;5.85;;;7.80;71.80;;;;;;2239643;56;21056;-74
2020/12/07 03:00:05;;;;;;;9.90;5.25;;;7.80;71.80;;;;;;2234580;56;21012;-74
2020/12/07 03:02:32;;;;;;;10.20;4.53;;;7.80;71.80;;;;;;2228595;55;21472;-74
2020/12/07 03:04:58;;;;;;;8.88;4.43;;;7.70;71.70;;;;;;2447646;55;20968;-74
2020/12/07 03:07:25;;;;;;;9.85;4.50;;;7.80;71.80;;;;;;2240057;55;21576;-74
2020/12/07 03:09:52;;;;;;;9.93;4.93;;;7.70;71.70;;;;;;2223221;55;21106;-74
2020/12/07 03:12:18;;;;;;;10.32;5.32;;;7.70;71.70;;;;;;2445674;55;20987;-74
2020/12/07 03:14:44;;;;;;;10.32;4.97;;;7.70;71.70;;;;;;2453707;55;20985;-74
2020/12/07 03:17:11;;;;;;;10.20;5.70;;;7.80;71.90;;;;;;2234464;55;21004;-74
2020/12/07 03:19:38;;;;;;;10.48;5.82;;;7.70;71.80;;;;;;2235308;56;21024;-74
2020/12/07 03:22:08;;;;;;;11.43;6.12;;;7.70;71.80;;;;;;2223416;55;20990;-74
2020/12/07 03:24:36;;;;;;;11.85;5.62;;;7.80;71.90;;;;;;2205486;56;21568;-74
2020/12/07 03:27:03;;;;;;;12.88;6.45;;;7.80;72.00;;;;;;2237969;56;21045;-74
2020/12/07 03:29:29;;;;;;;11.25;5.78;;;7.80;72.00;;;;;;2238895;56;20945;-74
2020/12/07 03:31:59;;;;;;;12.00;6.47;;;7.80;72.00;;;;;;2461470;56;21064;-74
2020/12/07 03:34:25;;;;;;;10.20;5.97;;;7.80;72.10;;;;;;2454599;55;20983;-74
2020/12/07 03:36:51;;;;;;;11.27;6.28;;;7.80;72.10;;;;;;2227091;55;21074;-74
2020/12/07 03:39:17;;;;;;;12.15;6.55;;;7.80;72.10;;;;;;2229081;55;21029;-74
2020/12/07 03:41:44;;;;;;;10.55;6.65;;;7.80;72.10;;;;;;2224867;55;21817;-74
2020/12/07 03:44:11;;;;;;;14.02;7.28;;;7.80;72.00;;;;;;2227361;56;20957;-74
2020/12/07 03:46:37;;;;;;;13.98;7.95;;;7.80;72.00;;;;;;2234570;56;20991;-73
2020/12/07 03:49:03;;;;;;;13.05;7.10;;;7.80;72.00;;;;;;2230558;55;20976;-74
2020/12/07 03:51:30;;;;;;;12.77;6.93;;;7.80;72.00;;;;;;2454939;55;21031;-74
2020/12/07 03:53:57;;;;;;;12.07;6.90;;;7.80;72.00;;;;;;2441883;55;21142;-74
2020/12/07 03:56:23;;;;;;;11.25;6.50;;;7.80;72.10;;;;;;2238240;56;21421;-74
2020/12/07 03:58:49;;;;;;;10.68;6.07;;;7.80;72.20;;;;;;2228620;56;21015;-74
2020/12/07 04:01:16;;;;;;;11.43;6.37;;;7.80;72.20;;;;;;2441595;55;21003;-74
2020/12/07 04:03:45;;;;;;;11.73;6.07;;;7.80;72.20;;;;;;2237697;56;20991;-74
2020/12/07 04:06:16;;;;;;;9.50;5.30;;;7.80;72.20;;;;;;2412428;56;20965;-74
2020/12/07 04:08:43;;;;;;;10.57;6.00;;;7.80;72.30;;;;;;2210164;56;20995;-74
2020/12/07 04:11:10;;;;;;;7.60;4.65;;;7.80;72.30;;;;;;2207622;56;21087;-74
2020/12/07 04:13:38;;;;;;;9.75;5.37;;;7.80;72.30;;;;;;2225603;56;20924;-73
2020/12/07 04:16:04;;;;;;;11.43;5.75;;;7.80;72.30;;;;;;2237863;56;20956;-74
2020/12/07 04:18:31;;;;;;;10.82;6.28;;;7.90;72.40;;;;;;2226566;56;21824;-74
2020/12/07 04:21:00;;;;;;;10.88;6.28;;;7.90;72.40;;;;;;2226746;56;21008;-74
2020/12/07 04:23:28;;;;;;;11.60;6.87;;;7.90;72.40;;;;;;2236300;56;21046;-74
2020/12/07 04:25:57;;;;;;;10.80;5.87;;;7.90;72.20;;;;;;2224725;55;21736;-74
2020/12/07 04:28:24;;;;;;;11.57;5.43;;;7.90;72.20;;;;;;2234537;56;21079;-74
2020/12/07 04:30:51;;;;;;;10.75;6.20;;;7.90;72.20;;;;;;2223673;55;20985;-74
2020/12/07 04:33:18;;;;;;;11.25;6.18;;;8.00;72.30;;;;;;2444774;55;20975;-74
2020/12/07 04:35:44;;;;;;;11.63;5.55;;;8.00;72.30;;;;;;2227056;55;21042;-74
2020/12/07 04:38:11;;;;;;;9.70;5.37;;;8.00;72.20;;;;;;2226913;55;20944;-74
2020/12/07 04:40:38;;;;;;;9.13;4.82;;;8.00;72.20;;;;;;2231425;56;21038;-74
2020/12/07 04:43:04;;;;;;;8.15;4.70;;;8.00;72.20;;;;;;2232297;56;21032;-74
2020/12/07 04:45:31;;;;;;;9.18;4.90;;;8.00;72.20;;;;;;2460851;55;20980;-74
2020/12/07 04:47:58;;;;;;;9.40;5.37;;;8.00;72.20;;;;;;2234357;55;20999;-74
2020/12/07 04:50:24;;;;;;;10.13;5.68;;;8.00;72.20;;;;;;2223419;55;21001;-74
2020/12/07 04:52:51;;;;;;;8.95;4.80;;;8.00;72.10;;;;;;2441086;55;21030;-74
2020/12/07 04:55:18;;;;;;;8.82;5.47;;;8.00;72.10;;;;;;2444019;55;20936;-74
2020/12/07 04:57:44;;;;;;;10.07;5.78;;;8.00;72.10;;;;;;2461556;55;21065;-74
2020/12/07 05:00:11;;;;;;;10.88;5.62;;;8.00;71.90;;;;;;2461054;55;20981;-74
2020/12/07 05:02:38;;;;;;;8.48;4.93;;;8.00;71.90;;;;;;2237479;56;20988;-74
2020/12/07 05:05:05;;;;;;;8.75;4.97;;;8.00;71.90;;;;;;2461273;55;21445;-74
2020/12/07 05:07:35;;;;;;;9.35;5.22;;;8.00;71.80;;;;;;2447790;55;20967;-74
2020/12/07 05:10:11;;;;;;;8.60;5.22;;;8.00;71.80;;;;;;2231231;55;21027;-74
2020/12/07 05:12:44;;;;;;;9.68;5.18;;;8.00;71.70;;;;;;2455233;55;21454;-74
2020/12/07 05:15:19;;;;;;;8.48;4.85;;;8.00;71.70;;;;;;2416707;55;20989;-74
2020/12/07 05:17:45;;;;;;;8.63;4.78;;;8.00;71.70;;;;;;2226450;56;20941;-74
2020/12/07 05:20:11;;;;;;;10.02;5.45;;;8.00;71.80;;;;;;2231035;56;21003;-74
2020/12/07 05:22:39;;;;;;;9.40;5.32;;;8.00;71.80;;;;;;2232650;56;21040;-74
2020/12/07 05:25:05;;;;;;;8.57;5.43;;;8.00;71.80;;;;;;2224654;56;20959;-74
2020/12/07 05:27:33;;;;;;;9.80;5.50;;;8.00;71.80;;;;;;2229312;56;20992;-74
2020/12/07 05:30:18;;;;;;;9.55;5.20;;;8.00;71.90;;;;;;2228061;55;20963;-74
2020/12/07 05:32:47;;;;;;;9.75;5.37;;;8.00;71.90;;;;;;2228036;55;21059;-74
2020/12/07 05:35:14;;;;;;;10.77;6.22;;;8.00;71.90;;;;;;2441927;55;21018;-74
2020/12/07 05:37:40;;;;;;;12.32;6.30;;;8.00;71.70;;;;;;2232381;55;20980;-74
2020/12/07 05:40:12;;;;;;;12.20;7.05;;;8.00;71.70;;;;;;2237171;56;21059;-74
2020/12/07 05:42:38;;;;;;;11.63;6.68;;;8.00;71.50;;;;;;2235103;56;21314;-74
2020/12/07 05:45:05;;;;;;;10.25;6.10;;;8.00;71.50;;;;;;2228090;55;21062;-74
2020/12/07 05:47:40;;;;;;;10.70;6.28;;;8.00;71.60;;;;;;2231142;55;21054;-74
2020/12/07 05:50:10;;;;;;;11.75;6.90;;;8.00;71.50;;;;;;2233636;55;21066;-74
2020/12/07 05:52:52;;;;;;;12.18;7.07;;;7.90;71.50;;;;;;2224583;55;21019;-74
2020/12/07 05:55:19;;;;;;;10.55;6.05;;;8.00;71.40;;;;;;2229950;56;21007;-74
2020/12/07 05:58:14;;;;;;;11.77;6.45;;;8.00;71.50;;;;;;2461768;55;21013;-74
2020/12/07 06:00:42;;;;;;;11.18;5.57;;;7.90;71.20;;;;;;2236886;55;20979;-74
2020/12/07 06:03:08;;;;;;;10.88;5.12;;;7.90;71.50;;;;;;2223007;55;21793;-74
2020/12/07 06:05:36;;;;;;;9.93;5.80;;;7.90;71.60;;;;;;2234131;55;21047;-74
2020/12/07 06:08:21;;;;;;;10.65;5.90;;;7.90;71.60;;;;;;2226229;55;20964;-73
2020/12/07 06:10:56;;;;;;;11.55;6.62;;;7.90;71.50;;;;;;2460969;55;21057;-74
2020/12/07 06:13:30;;;;;;;12.98;7.20;;;7.90;71.50;;;;;;2239261;56;20993;-74
2020/12/07 06:15:57;;;;;;;16.67;8.85;;;7.90;71.50;;;;;;2227846;55;20990;-75
2020/12/07 06:18:27;;;;;;;18.15;10.07;;;7.90;71.50;;;;;;2448250;55;21033;-74
2020/12/07 06:21:03;;;;;;;13.10;7.60;;;7.80;72.00;;;;;;2447044;55;20937;-74
2020/12/07 06:23:51;;;;;;;13.40;7.55;;;7.80;71.30;;;;;;2210305;56;21542;-74
2020/12/07 06:26:18;;;;;;;16.65;8.90;;;7.80;71.50;;;;;;2232885;55;21517;-74
2020/12/07 06:28:46;;;;;;;17.87;10.00;;;7.80;71.50;;;;;;2238073;55;21791;-74
2020/12/07 06:31:17;;;;;;;16.10;9.00;;;7.80;71.40;;;;;;2238414;56;21122;-75
2020/12/07 06:33:48;;;;;;;13.68;7.97;;;7.70;71.30;;;;;;2235776;55;21878;-75
2020/12/07 06:36:31;;;;;;;15.93;8.68;;;7.70;71.40;;;;;;2454070;55;20960;-75
2020/12/07 06:39:30;;;;;;;;;;;7.70;71.40;;;;;;2232028;56;20943;-74
2020/12/07 06:41:58;;;;;;;16.95;9.52;;;7.70;70.90;;;;;;2240290;56;20110;-75
2020/12/07 06:44:26;;;;;;;16.37;8.30;;;7.70;71.30;;;;;;2226306;56;20973;-74
2020/12/07 06:49:55;;;;;;;15.15;8.13;;;7.70;71.40;;;;;;2454865;55;21003;-74
2020/12/07 06:52:23;;;;;;;18.52;8.25;;;7.70;71.40;;;;;;2441370;55;20969;-74
2020/12/07 06:55:09;;;;;;;14.80;7.72;;;7.70;71.60;;;;;;2440914;55;20965;-74
2020/12/07 06:57:48;;;;;;;14.38;8.07;;;7.60;71.50;;;;;;2225795;55;20979;-74
2020/12/07 07:00:34;;;;;;;15.98;8.60;;;7.60;71.40;;;;;;2459633;55;20972;-74
2020/12/07 07:03:00;;;;;;;14.23;8.02;;;7.60;71.40;;;;;;2238382;55;21051;-74
2020/12/07 07:05:29;;;;;;;19.42;10.68;;;7.60;71.70;;;;;;2460680;55;21080;-75
2020/12/07 07:07:57;;;;;;;16.10;8.82;;;7.60;71.60;;;;;;2238354;56;21107;-74
2020/12/07 07:10:23;;;;;;;16.70;8.93;;;7.60;71.70;;;;;;2238409;56;21017;-74
2020/12/07 07:12:50;;;;;;;13.65;7.28;;;7.60;71.80;;;;;;2461263;55;20960;-74
2020/12/07 07:15:18;;;;;;;16.00;8.45;;;7.60;71.90;;;;;;2229176;55;20963;-74
2020/12/07 07:17:45;;;;;;;19.35;8.70;;;7.60;71.90;;;;;;2228099;55;20999;-74
2020/12/07 07:20:15;;;;;;;18.45;8.45;;;7.60;71.90;;;;;;2441451;55;21061;-74
2020/12/07 07:22:43;;;;;;;17.35;8.35;;;7.60;72.00;;;;;;2442521;55;21459;-74
2020/12/07 07:25:25;;;;;;;14.85;7.72;;;7.60;72.00;;;;;;2232139;55;20991;-74
2020/12/07 07:28:07;;;;;;;;;;;7.60;72.10;;;;;;2445365;55;20998;-74
2020/12/07 07:30:33;;;;;;;12.95;6.95;;;7.60;71.40;;;;;;2233864;56;20111;-74
2020/12/07 07:33:01;;;;;;;12.35;7.03;;;7.70;72.00;;;;;;2440828;55;21074;-74
2020/12/07 07:35:28;;;;;;;12.70;6.78;;;7.70;72.00;;;;;;2224968;55;20983;-74
2020/12/07 07:37:55;;;;;;;12.57;6.90;;;7.70;72.00;;;;;;2238013;56;21504;-74
2020/12/07 07:40:23;;;;;;;12.37;6.93;;;7.70;72.10;;;;;;2460815;55;20949;-73
2020/12/07 07:43:01;;;;;;;11.57;6.68;;;7.70;72.10;;;;;;2461070;55;21036;-74
2020/12/07 07:45:33;;;;;;;11.73;6.12;;;7.70;71.90;;;;;;2238117;56;21036;-73
2020/12/07 07:48:20;;;;;;;10.45;5.72;;;7.70;72.10;;;;;;2446536;55;21043;-73
2020/12/07 07:51:04;;;;;;;9.20;5.45;;;7.70;72.00;;;;;;2461239;56;21045;-74
2020/12/07 07:55:00;;;;;;;12.57;6.15;;;7.70;71.90;;;;;;2237652;56;21004;-73
2020/12/07 08:23:06;;;;;;;12.45;6.10;;;7.70;71.60;;;;;;2237531;56;20972;-74
2020/12/07 08:25:50;;;;;;;13.43;6.30;;;7.80;71.00;;;;;;2461905;55;21064;-74
2020/12/07 08:28:37;;;;;;;13.10;6.65;;;7.70;71.10;;;;;;2416009;56;21034;-74
2020/12/07 08:31:18;;;;;;;13.18;6.80;;;7.70;71.10;;;;;;2234351;55;21008;-74
2020/12/07 08:34:12;;;;;;;14.70;7.62;;;7.70;71.60;;;;;;2232648;55;21043;-74
2020/12/07 08:36:40;;;;;;;11.80;6.60;;;7.70;71.30;;;;;;2229649;56;21001;-74
2020/12/07 08:39:08;;;;;;;12.63;6.30;;;7.70;71.60;;;;;;2238392;56;21040;-74
2020/12/07 08:41:34;;;;;;;14.32;7.47;;;7.70;71.70;;;;;;2237325;56;21016;-74
2020/12/07 08:44:05;;;;;;;13.48;7.28;;;7.80;71.90;;;;;;2236427;55;20964;-74
2020/12/07 08:46:33;;;;;;;11.63;5.75;;;7.60;71.60;;;;;;2462052;55;21410;-75
2020/12/07 08:49:00;;;;;;;12.88;7.07;;;7.70;71.80;;;;;;2461521;55;21029;-74
2020/12/07 08:51:28;;;;;;;14.23;7.80;;;7.80;71.90;;;;;;2235279;55;21023;-73
2020/12/07 08:53:55;;;;;;;15.65;9.25;;;7.80;71.90;;;;;;2440135;55;20962;-74
2020/12/07 08:56:21;;;;;;;15.32;8.27;;;7.80;72.00;;;;;;2458059;55;21005;-74
2020/12/07 08:58:50;;;;;;;15.95;8.25;;;7.80;71.90;;;;;;2231081;56;21039;-73
2020/12/07 09:01:16;;;;;;;16.52;8.23;;;7.80;72.00;;;;;;2233215;56;21008;-73
2020/12/07 09:03:45;;;;;;;12.40;6.90;;;7.80;72.20;;;;;;2460559;55;21217;-73
2020/12/07 09:06:12;;;;;;;13.75;6.75;;;7.90;72.50;;;;;;2461603;55;21036;-73
2020/12/07 09:08:39;;;;;;;13.80;7.65;;;7.90;72.60;;;;;;2234002;56;20989;-73
2020/12/07 09:11:07;;;;;;;12.77;6.47;;;7.90;72.70;;;;;;2231594;55;20999;-73
2020/12/07 09:13:34;;;;;;;10.70;5.97;;;8.00;72.80;;;;;;2222463;55;21010;-74
2020/12/07 09:16:00;;;;;;;10.82;5.45;;;8.00;72.90;;;;;;2231274;55;21960;-73
2020/12/07 09:18:27;;;;;;;11.55;5.45;;;8.10;73.10;;;;;;2230633;56;21011;-74
2020/12/07 09:20:53;;;;;;;10.23;5.80;;;8.10;73.10;;;;;;2201874;56;21033;-73
2020/12/07 09:23:20;;;;;;;9.98;5.72;;;8.20;73.10;;;;;;2438022;56;20917;-74
2020/12/07 09:25:47;;;;;;;9.07;5.20;;;8.20;73.00;;;;;;2238348;56;21043;-73
2020/12/07 09:28:13;;;;;;;10.32;5.57;;;8.30;73.00;;;;;;2461694;56;21052;-74
2020/12/07 09:30:41;;;;;;;9.95;5.65;;;8.40;73.10;;;;;;2240670;56;21785;-74
2020/12/07 09:33:07;;;;;;;8.77;4.97;;;8.40;73.10;;;;;;2228037;55;21026;-73
2020/12/07 09:35:40;;;;;;;11.35;5.95;;;8.40;73.20;;;;;;2227714;55;20971;-74
2020/12/07 09:38:07;;;;;;;9.98;6.03;;;8.50;72.90;;;;;;2449550;55;21021;-74
2020/12/07 09:40:33;;;;;;;8.98;5.62;;;8.50;72.90;;;;;;2237183;56;20972;-74
2020/12/07 09:43:02;;;;;;;10.25;5.55;;;8.60;72.90;;;;;;2458220;55;20987;-73
2020/12/07 09:45:32;;;;;;;9.90;5.75;;;8.60;73.50;;;;;;2205638;56;20952;-73
2020/12/07 09:48:01;;;;;;;10.32;5.87;;;8.60;72.30;;;;;;2458687;55;21015;-73
2020/12/07 09:50:30;;;;;;;9.02;5.45;;;8.70;72.20;;;;;;2233796;55;20980;-73
2020/12/07 09:52:57;;;;;;;8.00;5.15;;;8.70;72.10;;;;;;2418798;56;20976;-73
2020/12/07 09:55:25;;;;;;;10.75;5.75;;;8.70;72.10;;;;;;2443425;55;20954;-73
2020/12/07 09:57:51;;;;;;;10.35;5.30;;;8.70;71.90;;;;;;2236902;55;21080;-73
2020/12/07 10:00:19;;;;;;;6.62;4.22;;;8.70;71.90;;;;;;2446087;55;21023;-73
2020/12/07 10:02:46;;;;;;;9.25;4.43;;;8.70;71.70;;;;;;2230536;55;21008;-74
2020/12/07 10:05:13;;;;;;;8.13;4.70;;;8.70;71.70;;;;;;2223930;56;20945;-73
2020/12/07 10:07:40;;;;;;;7.85;4.62;;;8.70;71.50;;;;;;2237743;55;21024;-74
2020/12/07 10:10:07;;;;;;;7.45;4.30;;;8.70;71.50;;;;;;2448929;55;20957;-74
2020/12/07 10:12:33;;;;;;;8.52;4.95;;;8.70;71.50;;;;;;2230780;56;21074;-74
2020/12/07 10:15:02;;;;;;;8.90;4.40;;;8.70;71.40;;;;;;2206789;57;21082;-74
2020/12/07 10:17:28;;;;;;;6.60;3.90;;;8.70;71.30;;;;;;2234572;56;21005;-74
2020/12/07 10:19:55;;;;;;;7.12;3.65;;;8.80;71.30;;;;;;2443832;55;21044;-74
2020/12/07 10:22:24;;;;;;;8.13;4.28;;;8.70;71.50;;;;;;2450625;55;20979;-74
2020/12/07 10:24:50;;;;;;;6.82;4.00;;;8.70;71.40;;;;;;2455196;55;21020;-74
2020/12/07 10:27:17;;;;;;;7.18;3.65;;;8.70;71.60;;;;;;2237798;56;20980;-73
2020/12/07 10:29:43;;;;;;;7.07;4.22;;;8.80;71.90;;;;;;2461082;55;20973;-74
2020/12/07 10:32:13;;;;;;;6.97;4.55;;;8.80;71.80;;;;;;2237176;55;20968;-73
2020/12/07 10:34:40;;;;;;;7.55;4.50;;;8.80;71.70;;;;;;2238439;56;20973;-74
2020/12/07 10:37:07;;;;;;;8.52;4.35;;;8.80;71.50;;;;;;2237616;56;20984;-74
2020/12/07 10:39:35;;;;;;;7.07;4.07;;;8.90;71.60;;;;;;2452650;55;20963;-73
2020/12/07 10:42:02;;;;;;;5.80;3.50;;;8.90;71.90;;;;;;2452682;55;21790;-74
2020/12/07 10:44:28;;;;;;;5.97;3.70;;;8.90;72.10;;;;;;2461097;55;20957;-73
2020/12/07 10:46:55;;;;;;;5.65;3.50;;;9.00;74.00;;;;;;2451169;55;21010;-73
2020/12/07 10:49:21;;;;;;;4.75;2.85;;;9.10;75.60;;;;;;2232217;56;20989;-74
2020/12/07 10:51:48;;;;;;;5.22;3.15;;;9.30;75.60;;;;;;2460883;55;21060;-72
2020/12/07 10:54:15;;;;;;;5.70;3.03;;;9.50;76.10;;;;;;2240131;56;20972;-73
2020/12/07 10:56:44;;;;;;;5.32;3.08;;;9.70;76.00;;;;;;2229103;55;20973;-74
2020/12/07 10:59:11;;;;;;;5.40;3.00;;;9.90;75.40;;;;;;2231215;56;21039;-73
2020/12/07 11:01:39;;;;;;;5.68;3.42;;;10.00;73.70;;;;;;2225233;56;21010;-73
2020/12/07 11:04:06;;;;;;;5.47;3.15;;;10.10;72.40;;;;;;2450267;56;20999;-74
2020/12/07 11:06:39;;;;;;;6.20;3.30;;;10.20;72.00;;;;;;2226163;55;21004;-73
2020/12/07 11:09:08;;;;;;;5.95;3.28;;;10.20;71.50;;;;;;2211468;55;21027;-73
2020/12/07 11:11:35;;;;;;;5.82;2.87;;;10.20;70.90;;;;;;2440907;55;20950;-74
2020/12/07 11:14:01;;;;;;;5.85;3.15;;;10.30;71.40;;;;;;2227173;55;21058;-74
2020/12/07 11:16:27;;;;;;;4.90;2.60;;;10.30;70.60;;;;;;2224888;55;21051;-74
2020/12/07 11:18:54;;;;;;;5.20;2.90;;;10.30;70.40;;;;;;2228110;56;21092;-73
2020/12/07 11:21:21;;;;;;;6.87;3.17;;;10.30;70.40;;;;;;2238097;55;20964;-73
2020/12/07 11:23:50;;;;;;;5.03;2.55;;;10.30;69.70;;;;;;2240230;56;20968;-74
2020/12/07 11:26:18;;;;;;;5.10;2.72;;;10.30;69.10;;;;;;2224510;55;21451;-73
2020/12/07 11:28:46;;;;;;;3.85;2.20;;;10.20;68.90;;;;;;2230917;55;21840;-74
2020/12/07 11:31:15;;;;;;;4.35;2.37;;;10.20;69.00;;;;;;2237776;56;21004;-74
2020/12/07 11:33:41;;;;;;;5.60;3.12;;;10.20;69.30;;;;;;2206214;57;20960;-74
2020/12/07 11:36:11;;;;;;;6.87;3.03;;;10.10;68.70;;;;;;2239027;56;21431;-74
2020/12/07 11:38:48;;;;;;;7.03;3.40;;;10.10;68.70;;;;;;2461150;55;21500;-73
2020/12/07 11:41:48;;;;;;;6.15;3.62;;;10.10;68.70;;;;;;2240544;56;20957;-73
2020/12/07 11:45:00;;;;;;;7.30;4.22;;;10.00;68.40;;;;;;2237864;56;21091;-73
2020/12/07 11:47:26;;;;;;;5.65;3.20;;;10.00;67.70;;;;;;2447262;55;20999;-73
2020/12/07 11:49:53;;;;;;;5.82;3.67;;;9.90;69.10;;;;;;2457823;55;20937;-73
2020/12/07 11:52:20;;;;;;;5.40;3.55;;;9.80;69.00;;;;;;2440504;55;21090;-73
2020/12/07 11:54:48;;;;;;;6.32;3.20;;;9.80;69.70;;;;;;2442163;55;20935;-73
2020/12/07 11:57:15;;;;;;;3.85;2.17;;;9.80;69.80;;;;;;2462369;55;21048;-73
2020/12/07 11:59:42;;;;;;;5.05;2.90;;;9.80;70.30;;;;;;2210043;56;20933;-73
2020/12/07 12:02:08;;;;;;;5.03;2.87;;;9.80;70.70;;;;;;2460887;55;20972;-73
2020/12/07 12:04:34;;;;;;;4.95;2.85;;;9.80;71.30;;;;;;2460716;55;22221;-73
2020/12/07 12:07:01;;;;;;;4.93;2.85;;;9.80;70.40;;;;;;2461890;55;21008;-73
2020/12/07 12:09:28;;;;;;;4.78;2.37;;;9.80;70.70;;;;;;2453091;55;22064;-73
2020/12/07 12:11:58;;;;;;;3.83;2.05;;;9.90;71.00;;;;;;2436036;55;20963;-73
2020/12/07 12:14:24;;;;;;;3.90;1.92;;;9.70;71.00;;;;;;2457531;55;21505;-74
2020/12/07 12:16:51;;;;;;;4.10;2.03;;;9.90;71.30;;;;;;2451553;55;21022;-73
2020/12/07 12:19:17;;;;;;;3.20;1.67;;;10.00;70.60;;;;;;2230287;56;21007;-72
2020/12/07 12:21:44;;;;;;;4.32;2.03;;;10.00;70.80;;;;;;2416169;56;21424;-73
2020/12/07 12:24:11;;;;;;;3.95;2.28;;;10.10;70.80;;;;;;2440733;55;21483;-73
2020/12/07 12:26:39;;;;;;;5.95;3.03;;;10.10;70.80;;;;;;2445845;55;20983;-73
2020/12/07 12:29:06;;;;;;;5.80;3.40;;;10.10;70.80;;;;;;2228083;55;20999;-72
2020/12/07 12:31:33;;;;;;;6.80;3.72;;;10.20;70.60;;;;;;2237278;56;20984;-72
2020/12/07 12:33:59;;;;;;;6.62;4.10;;;10.20;70.30;;;;;;2238792;56;21032;-73
2020/12/07 12:36:26;;;;;;;6.07;3.72;;;10.20;70.20;;;;;;2231120;56;21031;-73
2020/12/07 12:38:53;;;;;;;6.80;4.00;;;10.20;70.10;;;;;;2457373;55;20970;-72
2020/12/07 12:41:19;;;;;;;9.90;4.95;;;10.30;70.00;;;;;;2460590;55;21784;-72
2020/12/07 12:43:46;;;;;;;7.62;4.40;;;10.30;69.80;;;;;;2460834;55;20960;-72
2020/12/07 12:46:15;;;;;;;6.45;3.60;;;10.30;69.70;;;;;;2238237;56;21070;-72
2020/12/07 12:48:43;;;;;;;6.97;3.95;;;10.30;69.40;;;;;;2231574;55;21878;-73
2020/12/07 12:51:10;;;;;;;7.18;4.05;;;10.30;68.90;;;;;;2232199;56;21901;-73
2020/12/07 12:53:36;;;;;;;8.73;3.85;;;10.30;68.90;;;;;;2225318;56;21043;-73
2020/12/07 12:56:08;;;;;;;6.37;3.30;;;10.20;68.90;;;;;;2238136;56;21462;-73
2020/12/07 12:58:38;;;;;;;6.53;3.65;;;10.30;69.00;;;;;;2240673;56;21060;-72
2020/12/07 13:01:05;;;;;;;6.60;3.72;;;10.20;68.90;;;;;;2224379;56;21910;-72
2020/12/07 13:03:34;;;;;;;5.85;3.40;;;10.20;68.90;;;;;;2236634;55;21013;-73
2020/12/07 13:06:00;;;;;;;7.40;3.50;;;10.20;69.00;;;;;;2237713;55;20985;-73
2020/12/07 13:08:27;;;;;;;5.90;3.58;;;10.20;69.20;;;;;;2237390;55;20968;-73
2020/12/07 13:10:54;;;;;;;6.65;3.35;;;10.20;69.30;;;;;;2231170;55;20975;-72
2020/12/07 13:13:21;;;;;;;6.15;3.10;;;10.20;69.50;;;;;;2234113;55;20976;-73
2020/12/07 13:15:58;;;;;;;7.37;3.97;;;10.20;69.70;;;;;;2233154;55;20948;-73
2020/12/07 13:18:29;;;;;;;7.22;3.78;;;10.20;70.00;;;;;;2212157;56;21954;-72
2020/12/07 13:21:03;;;;;;;7.07;4.25;;;10.20;70.30;;;;;;2232637;56;21072;-73
2020/12/07 13:23:55;;;;;;;6.97;3.90;;;10.20;70.30;;;;;;2461145;55;21649;-73
2020/12/07 13:26:32;;;;;;;8.50;3.45;;;10.30;70.40;;;;;;2461433;55;20944;-72
2020/12/07 13:28:59;;;;;;;6.65;3.47;;;10.30;70.30;;;;;;2453379;55;21045;-73